Terminal Aerodrome Forecast
Issued by NWS Wichita, KS

Home | Current Version | Previous Version | Graphics & Text | Print | Product List | Glossary On
Versions: 1 2 3 4 5 6 7 8 9 10 11 12 13 14 15 16 17 18 19 20
000
FTUS43 KICT 280522
TAFICT
TAF
KICT 280522Z 2806/2906 11014G20KT P6SM VCTS SCT030 OVC060CB
      TEMPO 2806/2808 5SM TSRA OVC030CB
     FM280900 12010KT 6SM BR OVC020
     FM281200 14006KT 5SM BR OVC008
     FM281500 VRB04KT P6SM OVC016
     FM282000 36005KT P6SM BKN030
     FM290000 04011KT P6SM VCSH OVC025=

USA.gov is the U.S. government's official web portal to all federal, state and local government web resources and services.